sensor_id;sensor_type;location;lat;lon;timestamp;pressure;altitude;pressure_sealevel;temperature;humidity
59063;BME280;44851;45.648;9.004;2022-10-16T00:00:40;99409.72;;;17.11;64.13
59063;BME280;44851;45.648;9.004;2022-10-16T00:03:07;99405.75;;;17.07;63.73
59063;BME280;44851;45.648;9.004;2022-10-16T00:05:33;99403.47;;;17.12;63.98
59063;BME280;44851;45.648;9.004;2022-10-16T00:08:02;99409.38;;;17.06;63.85
59063;BME280;44851;45.648;9.004;2022-10-16T00:10:28;99410.38;;;17.13;63.83
59063;BME280;44851;45.648;9.004;2022-10-16T00:12:53;99403.47;;;17.12;63.50
59063;BME280;44851;45.648;9.004;2022-10-16T00:15:19;99406.28;;;17.11;63.99
59063;BME280;44851;45.648;9.004;2022-10-16T00:17:44;99411.84;;;17.08;63.51
59063;BME280;44851;45.648;9.004;2022-10-16T00:20:09;99404.81;;;17.00;63.84
59063;BME280;44851;45.648;9.004;2022-10-16T00:22:35;99419.13;;;16.98;64.00
59063;BME280;44851;45.648;9.004;2022-10-16T00:25:00;99410.25;;;16.91;64.16
59063;BME280;44851;45.648;9.004;2022-10-16T00:27:25;99412.72;;;16.92;64.27
59063;BME280;44851;45.648;9.004;2022-10-16T00:29:51;99410.44;;;16.89;64.79
59063;BME280;44851;45.648;9.004;2022-10-16T00:32:18;99415.66;;;17.05;64.20
59063;BME280;44851;45.648;9.004;2022-10-16T00:34:43;99429.78;;;17.12;64.50
59063;BME280;44851;45.648;9.004;2022-10-16T00:37:09;99421.88;;;17.04;64.58
59063;BME280;44851;45.648;9.004;2022-10-16T00:39:34;99421.06;;;17.04;64.74
59063;BME280;44851;45.648;9.004;2022-10-16T00:42:00;99425.06;;;17.00;64.72
59063;BME280;44851;45.648;9.004;2022-10-16T00:49:48;99424.69;;;17.03;64.97
59063;BME280;44851;45.648;9.004;2022-10-16T00:52:16;99421.56;;;17.07;65.32
59063;BME280;44851;45.648;9.004;2022-10-16T00:54:42;99421.56;;;17.07;65.26
59063;BME280;44851;45.648;9.004;2022-10-16T00:57:08;99427.63;;;17.08;65.11
59063;BME280;44851;45.648;9.004;2022-10-16T00:59:36;99427.50;;;17.09;65.61
59063;BME280;44851;45.648;9.004;2022-10-16T01:02:04;99425.19;;;17.06;65.49
59063;BME280;44851;45.648;9.004;2022-10-16T01:04:36;99421.06;;;17.04;65.18
59063;BME280;44851;45.648;9.004;2022-10-16T01:07:33;99422.47;;;16.83;64.81
59063;BME280;44851;45.648;9.004;2022-10-16T01:15:30;99414.72;;;16.90;64.93
59063;BME280;44851;45.648;9.004;2022-10-16T01:18:04;99415.66;;;16.97;65.72
59063;BME280;44851;45.648;9.004;2022-10-16T01:20:36;99416.03;;;16.94;66.28
59063;BME280;44851;45.648;9.004;2022-10-16T01:23:27;99411.56;;;16.95;64.77
59063;BME280;44851;45.648;9.004;2022-10-16T01:28:28;99413.22;;;16.96;65.94
59063;BME280;44851;45.648;9.004;2022-10-16T01:30:58;99409.09;;;16.93;64.96
59063;BME280;44851;45.648;9.004;2022-10-16T01:33:29;99409.59;;;16.88;65.25
59063;BME280;44851;45.648;9.004;2022-10-16T01:36:00;99409.75;;;16.95;64.93
59063;BME280;44851;45.648;9.004;2022-10-16T01:38:38;99413.53;;;16.93;64.19
59063;BME280;44851;45.648;9.004;2022-10-16T01:41:09;99413.91;;;16.90;64.67
59063;BME280;44851;45.648;9.004;2022-10-16T01:43:43;99416.66;;;16.96;63.96
59063;BME280;44851;45.648;9.004;2022-10-16T01:46:13;99413.06;;;16.89;64.61
59063;BME280;44851;45.648;9.004;2022-10-16T01:48:39;99415.09;;;16.79;64.72
59063;BME280;44851;45.648;9.004;2022-10-16T01:51:09;99418.53;;;16.79;64.53
59063;BME280;44851;45.648;9.004;2022-10-16T01:53:36;99417.88;;;16.77;64.58
59063;BME280;44851;45.648;9.004;2022-10-16T01:56:04;99415.84;;;16.87;64.19
59063;BME280;44851;45.648;9.004;2022-10-16T01:58:35;99420.66;;;16.76;64.25
59063;BME280;44851;45.648;9.004;2022-10-16T02:01:04;99426.63;;;16.70;64.66
59063;BME280;44851;45.648;9.004;2022-10-16T02:03:33;99427.94;;;16.66;64.87
59063;BME280;44851;45.648;9.004;2022-10-16T02:05:59;99421.66;;;16.75;64.89
59063;BME280;44851;45.648;9.004;2022-10-16T02:08:28;99422.97;;;16.79;65.28
59063;BME280;44851;45.648;9.004;2022-10-16T02:10:58;99427.56;;;16.77;64.91
59063;BME280;44851;45.648;9.004;2022-10-16T02:13:29;99427.56;;;16.77;64.69
59063;BME280;44851;45.648;9.004;2022-10-16T02:15:55;99429.22;;;16.78;64.62
59063;BME280;44851;45.648;9.004;2022-10-16T02:18:21;99433.47;;;16.87;64.26
59063;BME280;44851;45.648;9.004;2022-10-16T02:20:59;99424.25;;;16.83;63.22
59063;BME280;44851;45.648;9.004;2022-10-16T02:26:04;99420.53;;;16.69;64.77
59063;BME280;44851;45.648;9.004;2022-10-16T02:28:40;99421.97;;;16.80;63.94
59063;BME280;44851;45.648;9.004;2022-10-16T02:31:10;99427.44;;;16.78;64.68
59063;BME280;44851;45.648;9.004;2022-10-16T02:33:38;99425.75;;;16.77;64.71
59063;BME280;44851;45.648;9.004;2022-10-16T02:36:05;99425.94;;;16.76;64.65
59063;BME280;44851;45.648;9.004;2022-10-16T02:38:32;99426.56;;;16.86;64.26
59063;BME280;44851;45.648;9.004;2022-10-16T02:40:57;99426.94;;;16.75;64.51
59063;BME280;44851;45.648;9.004;2022-10-16T02:43:24;99428.88;;;16.73;64.58
59063;BME280;44851;45.648;9.004;2022-10-16T02:45:50;99431.56;;;16.65;64.54
59063;BME280;44851;45.648;9.004;2022-10-16T02:48:16;99433.19;;;16.66;64.27
59063;BME280;44851;45.648;9.004;2022-10-16T02:50:41;99425.97;;;16.68;64.85
59063;BME280;44851;45.648;9.004;2022-10-16T02:53:06;99427.59;;;16.69;64.77
59063;BME280;44851;45.648;9.004;2022-10-16T02:55:32;99429.56;;;16.67;64.21
59063;BME280;44851;45.648;9.004;2022-10-16T02:57:57;99436.13;;;16.79;63.79
59063;BME280;44851;45.648;9.004;2022-10-16T03:00:22;99436.66;;;16.74;64.29
59063;BME280;44851;45.648;9.004;2022-10-16T03:02:48;99432.03;;;16.76;63.78
59063;BME280;44851;45.648;9.004;2022-10-16T03:05:13;99435.66;;;16.75;64.32
59063;BME280;44851;45.648;9.004;2022-10-16T03:07:39;99437.97;;;16.78;64.13
59063;BME280;44851;45.648;9.004;2022-10-16T03:10:05;99439.41;;;16.73;64.33
59063;BME280;44851;45.648;9.004;2022-10-16T03:12:31;99448.00;;;16.75;64.02
59063;BME280;44851;45.648;9.004;2022-10-16T03:14:56;99439.78;;;16.70;64.29
59063;BME280;44851;45.648;9.004;2022-10-16T03:17:22;99439.78;;;16.70;64.75
59063;BME280;44851;45.648;9.004;2022-10-16T03:19:47;99432.56;;;16.64;65.11
59063;BME280;44851;45.648;9.004;2022-10-16T03:22:13;99444.56;;;16.58;64.56
59063;BME280;44851;45.648;9.004;2022-10-16T03:24:38;99442.09;;;16.65;65.03
59063;BME280;44851;45.648;9.004;2022-10-16T03:27:04;99441.59;;;16.69;64.28
59063;BME280;44851;45.648;9.004;2022-10-16T03:29:29;99438.28;;;16.75;64.43
59063;BME280;44851;45.648;9.004;2022-10-16T03:31:55;99445.38;;;16.67;64.72
59063;BME280;44851;45.648;9.004;2022-10-16T03:34:21;99452.75;;;16.71;64.40
59063;BME280;44851;45.648;9.004;2022-10-16T03:36:46;99451.78;;;16.64;64.93
59063;BME280;44851;45.648;9.004;2022-10-16T03:39:12;99446.69;;;16.71;65.05
59063;BME280;44851;45.648;9.004;2022-10-16T03:41:37;99452.94;;;16.70;65.20
59063;BME280;44851;45.648;9.004;2022-10-16T03:44:02;99454.94;;;16.59;64.96
59063;BME280;44851;45.648;9.004;2022-10-16T03:46:28;99450.31;;;16.61;65.15
59063;BME280;44851;45.648;9.004;2022-10-16T03:48:54;99457.56;;;16.68;64.64
59063;BME280;44851;45.648;9.004;2022-10-16T03:51:19;99455.91;;;16.58;64.57
59063;BME280;44851;45.648;9.004;2022-10-16T03:53:45;99455.59;;;16.53;64.95
59063;BME280;44851;45.648;9.004;2022-10-16T03:56:10;99452.13;;;16.61;64.95
59063;BME280;44851;45.648;9.004;2022-10-16T03:58:35;99452.97;;;16.53;64.75
59063;BME280;44851;45.648;9.004;2022-10-16T04:01:01;99455.59;;;16.53;65.05
59063;BME280;44851;45.648;9.004;2022-10-16T04:03:26;99462.50;;;16.54;64.76
59063;BME280;44851;45.648;9.004;2022-10-16T04:05:52;99465.44;;;16.59;65.07
59063;BME280;44851;45.648;9.004;2022-10-16T04:08:17;99459.53;;;16.49;64.70
59063;BME280;44851;45.648;9.004;2022-10-16T04:10:43;99464.63;;;16.59;65.06
59063;BME280;44851;45.648;9.004;2022-10-16T04:13:09;99475.66;;;16.63;64.87
59063;BME280;44851;45.648;9.004;2022-10-16T04:15:34;99478.63;;;16.68;64.75
59063;BME280;44851;45.648;9.004;2022-10-16T04:18:00;99485.19;;;16.55;65.09
59063;BME280;44851;45.648;9.004;2022-10-16T04:20:25;99479.94;;;16.55;65.63
59063;BME280;44851;45.648;9.004;2022-10-16T04:22:50;99488.50;;;16.49;64.67
59063;BME280;44851;45.648;9.004;2022-10-16T04:25:16;99483.88;;;16.51;65.66
59063;BME280;44851;45.648;9.004;2022-10-16T04:27:41;99483.53;;;16.54;65.22
59063;BME280;44851;45.648;9.004;2022-10-16T04:30:07;99485.53;;;16.52;65.19
59063;BME280;44851;45.648;9.004;2022-10-16T04:32:32;99482.06;;;16.60;65.84
59063;BME280;44851;45.648;9.004;2022-10-16T04:34:58;99492.94;;;16.57;65.52
59063;BME280;44851;45.648;9.004;2022-10-16T04:37:26;99498.84;;;16.59;64.94
59063;BME280;44851;45.648;9.004;2022-10-16T04:39:53;99493.06;;;16.72;65.79
59063;BME280;44851;45.648;9.004;2022-10-16T04:42:19;99498.66;;;16.60;65.65
59063;BME280;44851;45.648;9.004;2022-10-16T04:44:45;99493.75;;;16.57;65.50
59063;BME280;44851;45.648;9.004;2022-10-16T04:47:10;99492.09;;;16.56;65.62
59063;BME280;44851;45.648;9.004;2022-10-16T04:49:35;99488.97;;;16.61;65.73
59063;BME280;44851;45.648;9.004;2022-10-16T04:52:01;99488.81;;;16.63;65.79
59063;BME280;44851;45.648;9.004;2022-10-16T04:54:26;99493.41;;;16.60;65.86
59063;BME280;44851;45.648;9.004;2022-10-16T04:56:51;99505.13;;;16.42;65.64
59063;BME280;44851;45.648;9.004;2022-10-16T04:59:18;99495.41;;;16.58;65.66
59063;BME280;44851;45.648;9.004;2022-10-16T05:01:44;99492.44;;;16.53;65.84
59063;BME280;44851;45.648;9.004;2022-10-16T05:04:10;99497.69;;;16.53;66.25
59063;BME280;44851;45.648;9.004;2022-10-16T05:06:37;99496.06;;;16.52;66.10
59063;BME280;44851;45.648;9.004;2022-10-16T05:09:04;99497.53;;;16.47;66.34
59063;BME280;44851;45.648;9.004;2022-10-16T05:11:29;99495.22;;;16.60;65.91
59063;BME280;44851;45.648;9.004;2022-10-16T05:13:55;99500.97;;;16.39;66.17
59063;BME280;44851;45.648;9.004;2022-10-16T05:16:20;99500.34;;;16.53;66.13
59063;BME280;44851;45.648;9.004;2022-10-16T05:18:45;99507.06;;;16.56;66.46
59063;BME280;44851;45.648;9.004;2022-10-16T05:21:11;99499.84;;;16.58;66.47
59063;BME280;44851;45.648;9.004;2022-10-16T05:23:36;99502.63;;;16.40;66.41
59063;BME280;44851;45.648;9.004;2022-10-16T05:26:01;99504.63;;;16.46;66.83
59063;BME280;44851;45.648;9.004;2022-10-16T05:28:28;99506.25;;;16.55;66.75
59063;BME280;44851;45.648;9.004;2022-10-16T05:30:55;99506.59;;;16.52;66.75
59063;BME280;44851;45.648;9.004;2022-10-16T05:33:22;99506.09;;;16.49;66.50
59063;BME280;44851;45.648;9.004;2022-10-16T05:35:47;99503.94;;;16.44;66.58
59063;BME280;44851;45.648;9.004;2022-10-16T05:38:13;99515.63;;;16.50;66.53
59063;BME280;44851;45.648;9.004;2022-10-16T05:40:38;99522.03;;;16.39;66.84
59063;BME280;44851;45.648;9.004;2022-10-16T05:43:04;99518.41;;;16.40;67.01
59063;BME280;44851;45.648;9.004;2022-10-16T05:45:29;99528.63;;;16.43;66.95
59063;BME280;44851;45.648;9.004;2022-10-16T05:47:55;99521.06;;;16.48;66.73
59063;BME280;44851;45.648;9.004;2022-10-16T05:50:20;99526.97;;;16.34;66.97
59063;BME280;44851;45.648;9.004;2022-10-16T05:52:45;99525.66;;;16.38;66.99
59063;BME280;44851;45.648;9.004;2022-10-16T05:55:11;99537.50;;;16.42;67.09
59063;BME280;44851;45.648;9.004;2022-10-16T05:57:36;99533.22;;;16.49;67.46
59063;BME280;44851;45.648;9.004;2022-10-16T06:00:03;99537.16;;;16.45;67.76
59063;BME280;44851;45.648;9.004;2022-10-16T06:02:28;99541.28;;;16.48;67.69
59063;BME280;44851;45.648;9.004;2022-10-16T06:04:54;99547.03;;;16.51;67.59
59063;BME280;44851;45.648;9.004;2022-10-16T06:07:19;99552.28;;;16.51;67.82
59063;BME280;44851;45.648;9.004;2022-10-16T06:09:48;99545.06;;;16.53;67.83
59063;BME280;44851;45.648;9.004;2022-10-16T06:12:15;99550.97;;;16.55;67.57
59063;BME280;44851;45.648;9.004;2022-10-16T06:14:40;99554.28;;;16.49;67.64
59063;BME280;44851;45.648;9.004;2022-10-16T06:17:05;99557.91;;;16.48;67.68
59063;BME280;44851;45.648;9.004;2022-10-16T06:19:31;99558.56;;;16.42;67.87
59063;BME280;44851;45.648;9.004;2022-10-16T06:21:56;99576.63;;;16.45;68.01
59063;BME280;44851;45.648;9.004;2022-10-16T06:24:23;99571.69;;;16.50;67.37
59063;BME280;44851;45.648;9.004;2022-10-16T06:26:48;99574.31;;;16.50;67.78
59063;BME280;44851;45.648;9.004;2022-10-16T06:29:14;99571.22;;;16.55;67.59
59063;BME280;44851;45.648;9.004;2022-10-16T06:31:39;99580.75;;;16.56;67.25
59063;BME280;44851;45.648;9.004;2022-10-16T06:34:04;99577.44;;;16.62;67.72
59063;BME280;44851;45.648;9.004;2022-10-16T06:36:34;99585.19;;;16.55;67.93
59063;BME280;44851;45.648;9.004;2022-10-16T06:38:59;99586.69;;;16.58;68.42
59063;BME280;44851;45.648;9.004;2022-10-16T06:41:25;99586.69;;;16.66;68.17
59063;BME280;44851;45.648;9.004;2022-10-16T06:43:50;99589.16;;;16.59;68.14
59063;BME280;44851;45.648;9.004;2022-10-16T06:46:19;99591.78;;;16.68;67.83
59063;BME280;44851;45.648;9.004;2022-10-16T06:48:45;99596.38;;;16.66;68.08
59063;BME280;44851;45.648;9.004;2022-10-16T06:51:22;99600.50;;;16.68;67.62
59063;BME280;44851;45.648;9.004;2022-10-16T06:53:50;99603.94;;;16.60;67.49
59063;BME280;44851;45.648;9.004;2022-10-16T06:56:24;99612.19;;;16.66;67.66
59063;BME280;44851;45.648;9.004;2022-10-16T06:58:50;99611.84;;;16.77;68.72
59063;BME280;44851;45.648;9.004;2022-10-16T07:01:19;99617.78;;;16.79;67.17
59063;BME280;44851;45.648;9.004;2022-10-16T07:03:45;99623.38;;;16.84;67.13
59063;BME280;44851;45.648;9.004;2022-10-16T07:06:13;99630.63;;;16.90;67.73
59063;BME280;44851;45.648;9.004;2022-10-16T07:08:41;99629.31;;;16.86;68.17
59063;BME280;44851;45.648;9.004;2022-10-16T07:11:09;99634.25;;;16.89;68.49
59063;BME280;44851;45.648;9.004;2022-10-16T07:13:36;99642.13;;;16.81;67.59
59063;BME280;44851;45.648;9.004;2022-10-16T07:16:06;99638.84;;;16.95;67.63
59063;BME280;44851;45.648;9.004;2022-10-16T07:18:32;99649.38;;;16.87;67.29
59063;BME280;44851;45.648;9.004;2022-10-16T07:21:08;99650.03;;;16.97;66.65
59063;BME280;44851;45.648;9.004;2022-10-16T07:23:34;99650.06;;;16.89;67.83
59063;BME280;44851;45.648;9.004;2022-10-16T07:25:59;99655.97;;;16.91;68.48
59063;BME280;44851;45.648;9.004;2022-10-16T07:28:25;99656.94;;;16.98;68.87
59063;BME280;44851;45.648;9.004;2022-10-16T07:30:51;99656.28;;;16.96;68.73
59063;BME280;44851;45.648;9.004;2022-10-16T07:33:16;99661.22;;;16.99;68.32
59063;BME280;44851;45.648;9.004;2022-10-16T07:35:49;99655.31;;;17.05;68.11
59063;BME280;44851;45.648;9.004;2022-10-16T07:38:15;99663.53;;;17.02;69.53
59063;BME280;44851;45.648;9.004;2022-10-16T07:40:40;99662.22;;;16.98;69.21
59063;BME280;44851;45.648;9.004;2022-10-16T07:43:06;99668.31;;;17.07;68.91
59063;BME280;44851;45.648;9.004;2022-10-16T07:45:31;99668.81;;;17.02;68.61
59063;BME280;44851;45.648;9.004;2022-10-16T07:47:56;99671.75;;;16.99;68.09
59063;BME280;44851;45.648;9.004;2022-10-16T07:50:21;99668.50;;;17.13;68.39
59063;BME280;44851;45.648;9.004;2022-10-16T07:52:47;99671.31;;;17.12;69.03
59063;BME280;44851;45.648;9.004;2022-10-16T07:55:12;99676.72;;;17.19;69.11
59063;BME280;44851;45.648;9.004;2022-10-16T07:57:38;99676.41;;;17.22;68.75
59063;BME280;44851;45.648;9.004;2022-10-16T08:00:04;99681.66;;;17.38;67.45
59063;BME280;44851;45.648;9.004;2022-10-16T08:02:29;99681.31;;;17.41;67.90
59063;BME280;44851;45.648;9.004;2022-10-16T08:04:55;99685.09;;;17.47;68.74
59063;BME280;44851;45.648;9.004;2022-10-16T08:07:20;99677.19;;;17.55;66.45
59063;BME280;44851;45.648;9.004;2022-10-16T08:09:49;99688.19;;;17.67;67.52
59063;BME280;44851;45.648;9.004;2022-10-16T08:12:15;99676.31;;;17.71;67.94
59063;BME280;44851;45.648;9.004;2022-10-16T08:14:40;99680.75;;;17.78;66.39
59063;BME280;44851;45.648;9.004;2022-10-16T08:17:05;99686.66;;;17.97;66.78
59063;BME280;44851;45.648;9.004;2022-10-16T08:19:30;99681.16;;;18.14;66.07
59063;BME280;44851;45.648;9.004;2022-10-16T08:21:59;99684.00;;;18.44;64.79
59063;BME280;44851;45.648;9.004;2022-10-16T08:24:24;99685.16;;;18.64;61.29
59063;BME280;44851;45.648;9.004;2022-10-16T08:26:49;99687.28;;;18.69;62.81
59063;BME280;44851;45.648;9.004;2022-10-16T08:29:15;99691.22;;;19.04;60.61
59063;BME280;44851;45.648;9.004;2022-10-16T08:31:40;99698.56;;;19.32;60.55
59063;BME280;44851;45.648;9.004;2022-10-16T08:34:06;99687.78;;;19.56;58.80
59063;BME280;44851;45.648;9.004;2022-10-16T08:36:31;99690.28;;;19.72;59.68
59063;BME280;44851;45.648;9.004;2022-10-16T08:38:56;99688.09;;;19.61;58.71
59063;BME280;44851;45.648;9.004;2022-10-16T08:49:11;99699.28;;;19.26;60.29
59063;BME280;44851;45.648;9.004;2022-10-16T08:51:39;99695.00;;;19.25;60.77
59063;BME280;44851;45.648;9.004;2022-10-16T08:54:21;99702.94;;;19.25;60.28
59063;BME280;44851;45.648;9.004;2022-10-16T08:56:48;99706.16;;;19.12;60.40
59063;BME280;44851;45.648;9.004;2022-10-16T08:59:14;99698.59;;;19.09;62.15
59063;BME280;44851;45.648;9.004;2022-10-16T09:01:45;99704.13;;;18.99;58.96
59063;BME280;44851;45.648;9.004;2022-10-16T09:07:29;99709.34;;;18.84;59.84
59063;BME280;44851;45.648;9.004;2022-10-16T09:10:43;99713.47;;;18.79;58.87
59063;BME280;44851;45.648;9.004;2022-10-16T09:18:32;99712.00;;;18.76;59.08
59063;BME280;44851;45.648;9.004;2022-10-16T09:21:09;99721.47;;;18.71;58.96
59063;BME280;44851;45.648;9.004;2022-10-16T09:23:37;99722.41;;;18.78;58.22
59063;BME280;44851;45.648;9.004;2022-10-16T09:26:03;99728.38;;;18.72;59.22
59063;BME280;44851;45.648;9.004;2022-10-16T09:28:30;99726.03;;;18.77;59.83
59063;BME280;44851;45.648;9.004;2022-10-16T09:30:55;99725.72;;;18.80;60.03
59063;BME280;44851;45.648;9.004;2022-10-16T09:33:25;99726.53;;;18.80;59.34
59063;BME280;44851;45.648;9.004;2022-10-16T09:35:54;99723.03;;;18.88;58.71
59063;BME280;44851;45.648;9.004;2022-10-16T09:38:41;99725.22;;;18.76;59.36
59063;BME280;44851;45.648;9.004;2022-10-16T09:41:19;99725.72;;;18.80;58.64
59063;BME280;44851;45.648;9.004;2022-10-16T09:43:59;99732.03;;;18.71;58.08
59063;BME280;44851;45.648;9.004;2022-10-16T09:48:51;99729.66;;;18.84;58.43
59063;BME280;44851;45.648;9.004;2022-10-16T09:51:28;99738.75;;;18.81;58.69
59063;BME280;44851;45.648;9.004;2022-10-16T09:56:36;99733.28;;;18.75;58.78
59063;BME280;44851;45.648;9.004;2022-10-16T09:59:24;99739.97;;;18.62;58.89
59063;BME280;44851;45.648;9.004;2022-10-16T10:01:53;99738.94;;;18.72;59.78
59063;BME280;44851;45.648;9.004;2022-10-16T10:04:19;99737.63;;;18.67;59.73
59063;BME280;44851;45.648;9.004;2022-10-16T10:09:25;99734.06;;;18.60;60.04
59063;BME280;44851;45.648;9.004;2022-10-16T10:11:59;99734.38;;;18.57;60.44
59063;BME280;44851;45.648;9.004;2022-10-16T10:16:51;99730.41;;;18.61;62.36
59063;BME280;44851;45.648;9.004;2022-10-16T10:19:22;99735.50;;;18.63;60.70
59063;BME280;44851;45.648;9.004;2022-10-16T10:21:49;99728.72;;;18.68;62.05
59063;BME280;44851;45.648;9.004;2022-10-16T10:24:17;99737.75;;;18.74;61.41
59063;BME280;44851;45.648;9.004;2022-10-16T10:27:00;99734.31;;;18.74;59.34
59063;BME280;44851;45.648;9.004;2022-10-16T10:30:18;99735.81;;;18.68;59.75
59063;BME280;44851;45.648;9.004;2022-10-16T10:35:25;99739.59;;;18.82;58.21
59063;BME280;44851;45.648;9.004;2022-10-16T10:38:06;99729.94;;;18.89;58.79
59063;BME280;44851;45.648;9.004;2022-10-16T10:43:17;99731.19;;;19.01;57.30
59063;BME280;44851;45.648;9.004;2022-10-16T10:45:52;99733.28;;;19.06;59.00
59063;BME280;44851;45.648;9.004;2022-10-16T10:48:28;99723.38;;;19.08;57.59
59063;BME280;44851;45.648;9.004;2022-10-16T10:51:08;99718.03;;;19.16;57.01
59063;BME280;44851;45.648;9.004;2022-10-16T10:53:56;99723.41;;;19.23;58.11
59063;BME280;44851;45.648;9.004;2022-10-16T10:57:10;99711.91;;;19.15;57.80
59063;BME280;44851;45.648;9.004;2022-10-16T10:59:46;99710.34;;;19.29;57.52
59063;BME280;44851;45.648;9.004;2022-10-16T11:08:00;99712.94;;;19.52;55.52
59063;BME280;44851;45.648;9.004;2022-10-16T11:13:30;99718.63;;;19.64;55.76
59063;BME280;44851;45.648;9.004;2022-10-16T11:16:00;99724.72;;;19.64;56.32
59063;BME280;44851;45.648;9.004;2022-10-16T11:18:36;99707.84;;;19.65;55.30
59063;BME280;44851;45.648;9.004;2022-10-16T11:21:08;99709.34;;;19.83;55.47
59063;BME280;44851;45.648;9.004;2022-10-16T11:23:45;99703.13;;;19.76;55.06
59063;BME280;44851;45.648;9.004;2022-10-16T11:26:21;99708.16;;;20.00;56.18
59063;BME280;44851;45.648;9.004;2022-10-16T11:28:50;99705.50;;;20.15;56.85
59063;BME280;44851;45.648;9.004;2022-10-16T11:34:36;99703.56;;;20.53;54.24
59063;BME280;44851;45.648;9.004;2022-10-16T11:37:10;99708.38;;;20.86;54.79
59063;BME280;44851;45.648;9.004;2022-10-16T11:39:38;99703.28;;;21.06;53.76
59063;BME280;44851;45.648;9.004;2022-10-16T11:42:29;99694.03;;;21.16;51.47
59063;BME280;44851;45.648;9.004;2022-10-16T11:47:44;99691.81;;;21.48;52.01
59063;BME280;44851;45.648;9.004;2022-10-16T11:53:14;99684.78;;;21.96;51.96
59063;BME280;44851;45.648;9.004;2022-10-16T11:55:44;99689.34;;;22.09;51.85
59063;BME280;44851;45.648;9.004;2022-10-16T11:58:22;99693.09;;;21.87;49.88
59063;BME280;44851;45.648;9.004;2022-10-16T12:00:58;99685.84;;;22.02;50.46
59063;BME280;44851;45.648;9.004;2022-10-16T12:03:30;99688.50;;;22.02;50.08
59063;BME280;44851;45.648;9.004;2022-10-16T12:06:34;99676.94;;;22.16;50.00
59063;BME280;44851;45.648;9.004;2022-10-16T12:09:02;99679.50;;;22.03;49.41
59063;BME280;44851;45.648;9.004;2022-10-16T12:16:38;99679.66;;;22.43;50.28
59063;BME280;44851;45.648;9.004;2022-10-16T12:19:11;99678.88;;;22.49;49.68
59063;BME280;44851;45.648;9.004;2022-10-16T12:21:36;99681.59;;;22.62;48.78
59063;BME280;44851;45.648;9.004;2022-10-16T12:24:03;99673.81;;;22.61;49.41
59063;BME280;44851;45.648;9.004;2022-10-16T12:26:33;99675.41;;;22.55;49.74
59063;BME280;44851;45.648;9.004;2022-10-16T12:31:47;99670.94;;;22.62;47.83
59063;BME280;44851;45.648;9.004;2022-10-16T12:34:29;99668.94;;;22.77;48.46
59063;BME280;44851;45.648;9.004;2022-10-16T12:37:09;99672.41;;;22.84;48.68
59063;BME280;44851;45.648;9.004;2022-10-16T12:39:35;99673.66;;;22.75;48.34
59063;BME280;44851;45.648;9.004;2022-10-16T12:42:20;99663.63;;;22.64;47.03
59063;BME280;44851;45.648;9.004;2022-10-16T12:44:46;99668.72;;;22.72;47.84
59063;BME280;44851;45.648;9.004;2022-10-16T12:47:24;99671.97;;;22.61;47.04
59063;BME280;44851;45.648;9.004;2022-10-16T12:50:00;99672.00;;;22.74;47.84
59063;BME280;44851;45.648;9.004;2022-10-16T12:54:51;99672.41;;;22.71;46.65
59063;BME280;44851;45.648;9.004;2022-10-16T13:02:56;99670.78;;;22.83;47.55
59063;BME280;44851;45.648;9.004;2022-10-16T13:13:38;99677.72;;;22.84;49.33
59063;BME280;44851;45.648;9.004;2022-10-16T13:16:09;99678.16;;;22.81;48.22
59063;BME280;44851;45.648;9.004;2022-10-16T13:19:12;99677.94;;;22.90;49.68
59063;BME280;44851;45.648;9.004;2022-10-16T13:21:36;99675.88;;;22.65;47.35
59063;BME280;44851;45.648;9.004;2022-10-16T13:25:09;99669.03;;;22.43;48.99
59063;BME280;44851;45.648;9.004;2022-10-16T13:27:40;99673.59;;;22.62;48.00
59063;BME280;44851;45.648;9.004;2022-10-16T13:30:21;99668.59;;;22.32;47.06
59063;BME280;44851;45.648;9.004;2022-10-16T13:32:48;99675.56;;;22.47;49.27
59063;BME280;44851;45.648;9.004;2022-10-16T13:35:23;99661.34;;;22.61;51.27
59063;BME280;44851;45.648;9.004;2022-10-16T13:37:49;99668.84;;;22.38;48.87
59063;BME280;44851;45.648;9.004;2022-10-16T13:40:21;99669.03;;;22.43;47.89
59063;BME280;44851;45.648;9.004;2022-10-16T13:42:47;99669.03;;;22.43;47.76
59063;BME280;44851;45.648;9.004;2022-10-16T13:45:25;99671.25;;;22.32;47.80
59063;BME280;44851;45.648;9.004;2022-10-16T13:48:04;99670.63;;;22.30;47.81
59063;BME280;44851;45.648;9.004;2022-10-16T13:50:30;99669.81;;;22.37;48.34
59063;BME280;44851;45.648;9.004;2022-10-16T13:53:06;99674.66;;;22.13;48.25
59063;BME280;44851;45.648;9.004;2022-10-16T13:55:32;99673.38;;;22.02;48.63
59063;BME280;44851;45.648;9.004;2022-10-16T13:58:08;99672.59;;;22.15;48.87
59063;BME280;44851;45.648;9.004;2022-10-16T14:00:34;99671.41;;;22.18;49.37
59063;BME280;44851;45.648;9.004;2022-10-16T14:03:04;99672.44;;;22.17;48.86
59063;BME280;44851;45.648;9.004;2022-10-16T14:05:29;99675.69;;;22.12;48.03
59063;BME280;44851;45.648;9.004;2022-10-16T14:07:56;99681.22;;;22.17;47.87
59063;BME280;44851;45.648;9.004;2022-10-16T14:10:28;99684.09;;;22.22;48.17
59063;BME280;44851;45.648;9.004;2022-10-16T14:13:03;99681.63;;;22.21;48.06
59063;BME280;44851;45.648;9.004;2022-10-16T14:15:31;99681.00;;;22.12;48.95
59063;BME280;44851;45.648;9.004;2022-10-16T14:17:57;99692.56;;;21.98;48.64
59063;BME280;44851;45.648;9.004;2022-10-16T14:20:29;99679.88;;;22.00;49.28
59063;BME280;44851;45.648;9.004;2022-10-16T14:23:22;99680.31;;;21.97;48.65
59063;BME280;44851;45.648;9.004;2022-10-16T14:25:49;99691.72;;;21.91;48.35
59063;BME280;44851;45.648;9.004;2022-10-16T14:28:19;99690.44;;;21.87;48.95
59063;BME280;44851;45.648;9.004;2022-10-16T14:31:41;99693.75;;;21.67;49.98
59063;BME280;44851;45.648;9.004;2022-10-16T14:34:01;99685.03;;;21.73;49.58
59063;BME280;44851;45.648;9.004;2022-10-16T14:36:27;99690.97;;;21.75;50.19
59063;BME280;44851;45.648;9.004;2022-10-16T14:41:24;99692.41;;;21.78;49.22
59063;BME280;44851;45.648;9.004;2022-10-16T14:43:55;99690.44;;;21.87;48.60